Wetaug, Illinois
Current Conditions -  °F | °C
As of 3:15 PM on Sunday 23 Nov 2014 (Local Time) from KCIR Reporting Station
Moderate Rain Moderate Rain  
Wind Chill: 57°   Ceiling: 600
Heat Index: 57°   Visibility: 4mi
Dew Point: 54°   Wind: 5mph
Humidity: 89%   Direction: 90°E
Pressure: 29.34"   Gusts: NA
Location:  37.3713°N, 89.1162°W
Report Text: KCIR 232115Z AUTO 09004KT 4SM RA BKN006 OVC013 14/12 A2934 RMK AO2 P0009 T01410123
Loading
Personal Weather Stations






























Interactive Weather Map New forecast layout! Learn more

10-Day Weather Forecast

Advertisements
Track Severe Weather on mobile